sensor_id;sensor_type;location;lat;lon;timestamp;temperature;humidity
69800;DHT22;67217;51.008;4.644;2023-02-28T00:01:28;1.60;68.90
69800;DHT22;67217;51.008;4.644;2023-02-28T00:03:56;1.80;68.50
69800;DHT22;67217;51.008;4.644;2023-02-28T00:06:24;1.80;67.90
69800;DHT22;67217;51.008;4.644;2023-02-28T00:08:52;1.70;68.40
69800;DHT22;67217;51.008;4.644;2023-02-28T00:11:20;1.70;68.50
69800;DHT22;67217;51.008;4.644;2023-02-28T00:13:48;1.60;68.80
69800;DHT22;67217;51.008;4.644;2023-02-28T00:16:19;1.50;69.30
69800;DHT22;67217;51.008;4.644;2023-02-28T00:18:47;1.60;68.70
69800;DHT22;67217;51.008;4.644;2023-02-28T00:21:16;1.60;68.90
69800;DHT22;67217;51.008;4.644;2023-02-28T00:23:44;1.60;69.00
69800;DHT22;67217;51.008;4.644;2023-02-28T00:26:12;1.40;69.60
69800;DHT22;67217;51.008;4.644;2023-02-28T00:28:41;1.50;70.10
69800;DHT22;67217;51.008;4.644;2023-02-28T00:31:09;1.50;69.50
69800;DHT22;67217;51.008;4.644;2023-02-28T00:33:36;1.40;69.80
69800;DHT22;67217;51.008;4.644;2023-02-28T00:36:06;1.50;70.00
69800;DHT22;67217;51.008;4.644;2023-02-28T00:38:35;1.40;70.10
69800;DHT22;67217;51.008;4.644;2023-02-28T00:41:03;1.40;70.00
69800;DHT22;67217;51.008;4.644;2023-02-28T00:43:36;1.50;70.50
69800;DHT22;67217;51.008;4.644;2023-02-28T00:46:05;1.40;69.80
69800;DHT22;67217;51.008;4.644;2023-02-28T00:48:33;1.40;69.90
69800;DHT22;67217;51.008;4.644;2023-02-28T00:51:01;1.50;69.60
69800;DHT22;67217;51.008;4.644;2023-02-28T00:53:29;1.40;69.70
69800;DHT22;67217;51.008;4.644;2023-02-28T00:55:59;1.30;70.30
69800;DHT22;67217;51.008;4.644;2023-02-28T00:58:27;1.30;70.40
69800;DHT22;67217;51.008;4.644;2023-02-28T01:00:54;1.20;70.30
69800;DHT22;67217;51.008;4.644;2023-02-28T01:03:24;1.30;70.60
69800;DHT22;67217;51.008;4.644;2023-02-28T01:05:52;1.20;70.70
69800;DHT22;67217;51.008;4.644;2023-02-28T01:08:23;1.20;70.80
69800;DHT22;67217;51.008;4.644;2023-02-28T01:10:53;1.10;70.90
69800;DHT22;67217;51.008;4.644;2023-02-28T01:13:20;1.10;71.30
69800;DHT22;67217;51.008;4.644;2023-02-28T01:15:51;1.10;71.30
69800;DHT22;67217;51.008;4.644;2023-02-28T01:18:20;1.00;71.50
69800;DHT22;67217;51.008;4.644;2023-02-28T01:20:48;1.00;71.60
69800;DHT22;67217;51.008;4.644;2023-02-28T01:23:19;1.10;71.30
69800;DHT22;67217;51.008;4.644;2023-02-28T01:25:48;1.10;71.10
69800;DHT22;67217;51.008;4.644;2023-02-28T01:28:16;1.00;71.20
69800;DHT22;67217;51.008;4.644;2023-02-28T01:30:49;1.10;71.20
69800;DHT22;67217;51.008;4.644;2023-02-28T01:33:17;1.10;71.20
69800;DHT22;67217;51.008;4.644;2023-02-28T01:35:45;0.90;71.90
69800;DHT22;67217;51.008;4.644;2023-02-28T01:38:13;0.90;72.20
69800;DHT22;67217;51.008;4.644;2023-02-28T01:40:40;0.90;72.00
69800;DHT22;67217;51.008;4.644;2023-02-28T01:43:19;0.90;72.40
69800;DHT22;67217;51.008;4.644;2023-02-28T01:45:42;0.80;72.50
69800;DHT22;67217;51.008;4.644;2023-02-28T01:48:10;0.90;72.60
69800;DHT22;67217;51.008;4.644;2023-02-28T01:53:30;0.80;72.60
69800;DHT22;67217;51.008;4.644;2023-02-28T01:55:58;0.80;72.90
69800;DHT22;67217;51.008;4.644;2023-02-28T01:58:26;0.90;72.50
69800;DHT22;67217;51.008;4.644;2023-02-28T02:00:55;0.80;72.70
69800;DHT22;67217;51.008;4.644;2023-02-28T02:03:24;0.70;73.10
69800;DHT22;67217;51.008;4.644;2023-02-28T02:05:52;0.60;73.30
69800;DHT22;67217;51.008;4.644;2023-02-28T02:08:22;0.60;73.50
69800;DHT22;67217;51.008;4.644;2023-02-28T02:10:56;0.60;73.90
69800;DHT22;67217;51.008;4.644;2023-02-28T02:16:34;0.70;73.10
69800;DHT22;67217;51.008;4.644;2023-02-28T02:19:14;0.70;73.30
69800;DHT22;67217;51.008;4.644;2023-02-28T02:22:43;0.80;73.00
69800;DHT22;67217;51.008;4.644;2023-02-28T02:37:52;0.80;73.00
69800;DHT22;67217;51.008;4.644;2023-02-28T02:40:25;0.70;73.20
69800;DHT22;67217;51.008;4.644;2023-02-28T02:45:59;0.60;73.70
69800;DHT22;67217;51.008;4.644;2023-02-28T02:48:30;0.60;73.50
69800;DHT22;67217;51.008;4.644;2023-02-28T02:51:01;0.60;73.70
69800;DHT22;67217;51.008;4.644;2023-02-28T02:53:34;0.50;73.90
69800;DHT22;67217;51.008;4.644;2023-02-28T02:56:04;0.50;74.20
69800;DHT22;67217;51.008;4.644;2023-02-28T02:58:36;0.40;74.40
69800;DHT22;67217;51.008;4.644;2023-02-28T03:01:06;0.40;74.50
69800;DHT22;67217;51.008;4.644;2023-02-28T03:03:34;0.30;74.80
69800;DHT22;67217;51.008;4.644;2023-02-28T03:06:03;0.30;75.00
69800;DHT22;67217;51.008;4.644;2023-02-28T03:08:37;0.30;75.30
69800;DHT22;67217;51.008;4.644;2023-02-28T03:11:10;0.30;75.40
69800;DHT22;67217;51.008;4.644;2023-02-28T03:28:34;0.30;75.40
69800;DHT22;67217;51.008;4.644;2023-02-28T03:31:12;0.40;75.20
69800;DHT22;67217;51.008;4.644;2023-02-28T03:32:58;0.30;75.20
69800;DHT22;67217;51.008;4.644;2023-02-28T03:35:31;0.30;75.40
69800;DHT22;67217;51.008;4.644;2023-02-28T03:38:12;0.10;75.90
69800;DHT22;67217;51.008;4.644;2023-02-28T03:40:43;0.20;75.90
69800;DHT22;67217;51.008;4.644;2023-02-28T03:43:13;0.20;75.80
69800;DHT22;67217;51.008;4.644;2023-02-28T03:45:42;0.20;75.60
69800;DHT22;67217;51.008;4.644;2023-02-28T03:48:16;0.30;75.60
69800;DHT22;67217;51.008;4.644;2023-02-28T03:50:47;0.30;75.40
69800;DHT22;67217;51.008;4.644;2023-02-28T03:53:27;0.20;75.40
69800;DHT22;67217;51.008;4.644;2023-02-28T03:55:59;0.10;76.20
69800;DHT22;67217;51.008;4.644;2023-02-28T03:58:41;0.10;75.90
69800;DHT22;67217;51.008;4.644;2023-02-28T04:01:09;0.10;76.20
69800;DHT22;67217;51.008;4.644;2023-02-28T04:03:38;0.00;76.30
69800;DHT22;67217;51.008;4.644;2023-02-28T04:06:09;0.00;76.70
69800;DHT22;67217;51.008;4.644;2023-02-28T04:08:37;0.00;76.90
69800;DHT22;67217;51.008;4.644;2023-02-28T04:11:08;0.00;76.80
69800;DHT22;67217;51.008;4.644;2023-02-28T04:13:36;0.20;76.60
69800;DHT22;67217;51.008;4.644;2023-02-28T04:16:08;0.20;76.30
69800;DHT22;67217;51.008;4.644;2023-02-28T04:18:39;0.20;76.10
69800;DHT22;67217;51.008;4.644;2023-02-28T04:21:07;0.10;76.40
69800;DHT22;67217;51.008;4.644;2023-02-28T04:23:35;0.00;76.90
69800;DHT22;67217;51.008;4.644;2023-02-28T04:26:03;0.10;77.10
69800;DHT22;67217;51.008;4.644;2023-02-28T04:28:32;0.20;76.80
69800;DHT22;67217;51.008;4.644;2023-02-28T04:31:03;0.20;76.40
69800;DHT22;67217;51.008;4.644;2023-02-28T04:33:32;0.30;76.40
69800;DHT22;67217;51.008;4.644;2023-02-28T04:36:01;0.20;76.20
69800;DHT22;67217;51.008;4.644;2023-02-28T04:38:34;0.30;76.40
69800;DHT22;67217;51.008;4.644;2023-02-28T04:41:02;0.30;76.40
69800;DHT22;67217;51.008;4.644;2023-02-28T04:43:30;0.20;76.60
69800;DHT22;67217;51.008;4.644;2023-02-28T04:46:01;0.20;76.90
69800;DHT22;67217;51.008;4.644;2023-02-28T04:48:31;0.40;76.40
69800;DHT22;67217;51.008;4.644;2023-02-28T04:51:03;0.50;75.90
69800;DHT22;67217;51.008;4.644;2023-02-28T04:53:32;0.40;76.10
69800;DHT22;67217;51.008;4.644;2023-02-28T04:56:00;0.40;76.60
69800;DHT22;67217;51.008;4.644;2023-02-28T04:58:28;0.60;76.00
69800;DHT22;67217;51.008;4.644;2023-02-28T05:01:01;0.60;75.80
69800;DHT22;67217;51.008;4.644;2023-02-28T05:03:29;0.60;76.30
69800;DHT22;67217;51.008;4.644;2023-02-28T05:05:57;0.60;76.20
69800;DHT22;67217;51.008;4.644;2023-02-28T05:08:25;0.70;75.80
69800;DHT22;67217;51.008;4.644;2023-02-28T05:10:53;0.70;75.90
69800;DHT22;67217;51.008;4.644;2023-02-28T05:13:20;0.80;75.70
69800;DHT22;67217;51.008;4.644;2023-02-28T05:15:49;0.90;75.10
69800;DHT22;67217;51.008;4.644;2023-02-28T05:18:17;1.00;74.50
69800;DHT22;67217;51.008;4.644;2023-02-28T05:20:45;1.10;74.70
69800;DHT22;67217;51.008;4.644;2023-02-28T05:23:13;1.00;74.80
69800;DHT22;67217;51.008;4.644;2023-02-28T05:25:42;1.10;75.60
69800;DHT22;67217;51.008;4.644;2023-02-28T05:28:10;1.10;75.00
69800;DHT22;67217;51.008;4.644;2023-02-28T05:30:37;1.20;74.50
69800;DHT22;67217;51.008;4.644;2023-02-28T05:33:06;1.20;74.10
69800;DHT22;67217;51.008;4.644;2023-02-28T05:35:34;1.20;74.30
69800;DHT22;67217;51.008;4.644;2023-02-28T05:38:03;1.10;74.80
69800;DHT22;67217;51.008;4.644;2023-02-28T05:40:31;1.00;75.00
69800;DHT22;67217;51.008;4.644;2023-02-28T05:42:59;1.10;75.00
69800;DHT22;67217;51.008;4.644;2023-02-28T05:45:27;1.30;74.10
69800;DHT22;67217;51.008;4.644;2023-02-28T05:47:55;1.30;74.00
69800;DHT22;67217;51.008;4.644;2023-02-28T05:50:23;1.40;74.00
69800;DHT22;67217;51.008;4.644;2023-02-28T05:55:40;1.50;73.20
69800;DHT22;67217;51.008;4.644;2023-02-28T05:58:07;1.50;73.10
69800;DHT22;67217;51.008;4.644;2023-02-28T06:00:35;1.50;73.40
69800;DHT22;67217;51.008;4.644;2023-02-28T06:03:03;1.40;73.50
69800;DHT22;67217;51.008;4.644;2023-02-28T06:05:31;1.30;73.90
69800;DHT22;67217;51.008;4.644;2023-02-28T06:07:59;1.40;73.90
69800;DHT22;67217;51.008;4.644;2023-02-28T06:10:27;1.50;73.40
69800;DHT22;67217;51.008;4.644;2023-02-28T06:12:55;1.50;73.30
69800;DHT22;67217;51.008;4.644;2023-02-28T06:15:23;1.50;73.40
69800;DHT22;67217;51.008;4.644;2023-02-28T06:17:51;1.50;73.40
69800;DHT22;67217;51.008;4.644;2023-02-28T06:20:18;1.50;73.40
69800;DHT22;67217;51.008;4.644;2023-02-28T06:22:46;1.50;73.60
69800;DHT22;67217;51.008;4.644;2023-02-28T06:25:14;1.50;73.30
69800;DHT22;67217;51.008;4.644;2023-02-28T06:27:43;1.50;73.20
69800;DHT22;67217;51.008;4.644;2023-02-28T06:30:11;1.50;73.60
69800;DHT22;67217;51.008;4.644;2023-02-28T06:32:39;1.40;73.80
69800;DHT22;67217;51.008;4.644;2023-02-28T06:35:07;1.50;73.60
69800;DHT22;67217;51.008;4.644;2023-02-28T06:37:35;1.50;73.70
69800;DHT22;67217;51.008;4.644;2023-02-28T06:40:03;1.50;73.80
69800;DHT22;67217;51.008;4.644;2023-02-28T06:42:32;1.70;73.50
69800;DHT22;67217;51.008;4.644;2023-02-28T06:45:00;1.60;73.40
69800;DHT22;67217;51.008;4.644;2023-02-28T06:47:31;1.60;73.20
69800;DHT22;67217;51.008;4.644;2023-02-28T06:49:59;1.60;73.40
69800;DHT22;67217;51.008;4.644;2023-02-28T06:52:28;1.60;73.60
69800;DHT22;67217;51.008;4.644;2023-02-28T06:54:56;1.70;73.30
69800;DHT22;67217;51.008;4.644;2023-02-28T06:57:28;1.80;72.80
69800;DHT22;67217;51.008;4.644;2023-02-28T07:00:09;2.10;72.40
69800;DHT22;67217;51.008;4.644;2023-02-28T07:02:37;2.10;71.80
69800;DHT22;67217;51.008;4.644;2023-02-28T07:05:06;2.20;71.80
69800;DHT22;67217;51.008;4.644;2023-02-28T07:07:34;2.10;71.70
69800;DHT22;67217;51.008;4.644;2023-02-28T07:10:04;2.20;71.50
69800;DHT22;67217;51.008;4.644;2023-02-28T07:12:31;2.40;70.50
69800;DHT22;67217;51.008;4.644;2023-02-28T07:14:59;2.60;69.80
69800;DHT22;67217;51.008;4.644;2023-02-28T07:17:27;2.60;69.80
69800;DHT22;67217;51.008;4.644;2023-02-28T07:19:55;2.60;69.40
69800;DHT22;67217;51.008;4.644;2023-02-28T07:22:23;2.40;69.70
69800;DHT22;67217;51.008;4.644;2023-02-28T07:24:51;2.50;69.20
69800;DHT22;67217;51.008;4.644;2023-02-28T07:27:19;2.30;69.40
69800;DHT22;67217;51.008;4.644;2023-02-28T07:29:49;2.30;70.00
69800;DHT22;67217;51.008;4.644;2023-02-28T07:32:17;2.40;69.90
69800;DHT22;67217;51.008;4.644;2023-02-28T07:34:45;2.60;69.20
69800;DHT22;67217;51.008;4.644;2023-02-28T07:37:13;2.80;67.90
69800;DHT22;67217;51.008;4.644;2023-02-28T07:39:41;2.80;67.80
69800;DHT22;67217;51.008;4.644;2023-02-28T07:42:09;2.80;67.00
69800;DHT22;67217;51.008;4.644;2023-02-28T07:44:39;2.80;66.60
69800;DHT22;67217;51.008;4.644;2023-02-28T07:47:10;2.80;67.10
69800;DHT22;67217;51.008;4.644;2023-02-28T07:49:39;2.60;67.70
69800;DHT22;67217;51.008;4.644;2023-02-28T07:52:07;2.50;67.90
69800;DHT22;67217;51.008;4.644;2023-02-28T07:54:35;2.70;67.30
69800;DHT22;67217;51.008;4.644;2023-02-28T07:57:03;2.60;68.20
69800;DHT22;67217;51.008;4.644;2023-02-28T07:59:31;2.50;68.00
69800;DHT22;67217;51.008;4.644;2023-02-28T08:01:59;2.60;67.30
69800;DHT22;67217;51.008;4.644;2023-02-28T08:04:26;2.80;67.20
69800;DHT22;67217;51.008;4.644;2023-02-28T08:06:55;2.80;66.40
69800;DHT22;67217;51.008;4.644;2023-02-28T08:09:23;3.00;64.60
69800;DHT22;67217;51.008;4.644;2023-02-28T08:11:51;3.10;62.70
69800;DHT22;67217;51.008;4.644;2023-02-28T08:14:19;3.00;63.00
69800;DHT22;67217;51.008;4.644;2023-02-28T08:16:46;3.10;62.80
69800;DHT22;67217;51.008;4.644;2023-02-28T08:19:14;3.10;62.50
69800;DHT22;67217;51.008;4.644;2023-02-28T08:21:42;3.10;61.20
69800;DHT22;67217;51.008;4.644;2023-02-28T08:24:10;3.20;60.60
69800;DHT22;67217;51.008;4.644;2023-02-28T08:26:37;3.20;60.60
69800;DHT22;67217;51.008;4.644;2023-02-28T08:29:06;3.20;61.00
69800;DHT22;67217;51.008;4.644;2023-02-28T08:31:34;3.20;60.90
69800;DHT22;67217;51.008;4.644;2023-02-28T08:34:13;3.20;59.20
69800;DHT22;67217;51.008;4.644;2023-02-28T08:36:41;3.10;58.80
69800;DHT22;67217;51.008;4.644;2023-02-28T08:39:11;3.40;58.40
69800;DHT22;67217;51.008;4.644;2023-02-28T08:41:39;4.10;56.00
69800;DHT22;67217;51.008;4.644;2023-02-28T08:44:07;4.30;55.00
69800;DHT22;67217;51.008;4.644;2023-02-28T08:46:35;4.10;55.20
69800;DHT22;67217;51.008;4.644;2023-02-28T08:49:03;3.80;54.90
69800;DHT22;67217;51.008;4.644;2023-02-28T08:51:31;3.60;54.90
69800;DHT22;67217;51.008;4.644;2023-02-28T08:54:00;3.40;55.90
69800;DHT22;67217;51.008;4.644;2023-02-28T08:56:28;3.40;55.90
69800;DHT22;67217;51.008;4.644;2023-02-28T08:58:57;3.40;55.20
69800;DHT22;67217;51.008;4.644;2023-02-28T09:01:27;3.50;55.30
69800;DHT22;67217;51.008;4.644;2023-02-28T09:03:56;3.50;55.20
69800;DHT22;67217;51.008;4.644;2023-02-28T09:06:25;3.50;55.10
69800;DHT22;67217;51.008;4.644;2023-02-28T09:08:56;3.40;55.10
69800;DHT22;67217;51.008;4.644;2023-02-28T09:11:24;3.40;55.90
69800;DHT22;67217;51.008;4.644;2023-02-28T09:13:52;3.40;55.40
69800;DHT22;67217;51.008;4.644;2023-02-28T09:16:20;3.50;55.00
69800;DHT22;67217;51.008;4.644;2023-02-28T09:18:48;3.50;54.40
69800;DHT22;67217;51.008;4.644;2023-02-28T09:21:18;3.50;54.90
69800;DHT22;67217;51.008;4.644;2023-02-28T09:23:47;3.40;54.60
69800;DHT22;67217;51.008;4.644;2023-02-28T09:26:18;3.50;55.20
69800;DHT22;67217;51.008;4.644;2023-02-28T09:28:46;3.50;54.60
69800;DHT22;67217;51.008;4.644;2023-02-28T09:31:19;3.60;53.70
69800;DHT22;67217;51.008;4.644;2023-02-28T09:33:47;3.80;51.90
69800;DHT22;67217;51.008;4.644;2023-02-28T09:36:15;3.90;52.20
69800;DHT22;67217;51.008;4.644;2023-02-28T09:38:42;3.80;52.70
69800;DHT22;67217;51.008;4.644;2023-02-28T09:41:17;3.80;51.30
69800;DHT22;67217;51.008;4.644;2023-02-28T09:43:46;3.70;50.90
69800;DHT22;67217;51.008;4.644;2023-02-28T09:46:40;3.60;51.30
69800;DHT22;67217;51.008;4.644;2023-02-28T09:49:22;3.60;51.30
69800;DHT22;67217;51.008;4.644;2023-02-28T09:52:07;3.60;50.90
69800;DHT22;67217;51.008;4.644;2023-02-28T09:54:34;3.70;50.80
69800;DHT22;67217;51.008;4.644;2023-02-28T10:00:07;3.80;47.80
69800;DHT22;67217;51.008;4.644;2023-02-28T10:05:12;3.70;47.60
69800;DHT22;67217;51.008;4.644;2023-02-28T10:10:53;3.70;46.50
69800;DHT22;67217;51.008;4.644;2023-02-28T10:16:14;4.10;45.50
69800;DHT22;67217;51.008;4.644;2023-02-28T10:19:16;4.40;45.20
69800;DHT22;67217;51.008;4.644;2023-02-28T10:21:35;4.40;43.50
69800;DHT22;67217;51.008;4.644;2023-02-28T10:26:48;4.00;45.40
69800;DHT22;67217;51.008;4.644;2023-02-28T10:29:16;4.10;46.50
69800;DHT22;67217;51.008;4.644;2023-02-28T10:31:44;4.20;45.50
69800;DHT22;67217;51.008;4.644;2023-02-28T10:34:13;4.30;45.20
69800;DHT22;67217;51.008;4.644;2023-02-28T10:36:41;4.30;45.90
69800;DHT22;67217;51.008;4.644;2023-02-28T10:39:36;4.40;45.40
69800;DHT22;67217;51.008;4.644;2023-02-28T10:41:59;4.50;45.30
69800;DHT22;67217;51.008;4.644;2023-02-28T10:44:27;4.50;44.10
69800;DHT22;67217;51.008;4.644;2023-02-28T10:46:56;4.60;44.30
69800;DHT22;67217;51.008;4.644;2023-02-28T10:49:28;4.70;44.60
69800;DHT22;67217;51.008;4.644;2023-02-28T10:51:59;4.80;43.80
69800;DHT22;67217;51.008;4.644;2023-02-28T10:54:32;4.80;42.90
69800;DHT22;67217;51.008;4.644;2023-02-28T10:57:23;5.00;43.90
69800;DHT22;67217;51.008;4.644;2023-02-28T11:00:06;5.10;43.00
69800;DHT22;67217;51.008;4.644;2023-02-28T11:02:31;5.50;42.10
69800;DHT22;67217;51.008;4.644;2023-02-28T11:04:59;6.00;41.40
69800;DHT22;67217;51.008;4.644;2023-02-28T11:07:27;6.20;41.00
69800;DHT22;67217;51.008;4.644;2023-02-28T11:09:57;6.80;39.90
69800;DHT22;67217;51.008;4.644;2023-02-28T11:12:36;7.70;36.80
69800;DHT22;67217;51.008;4.644;2023-02-28T11:20:52;12.00;28.70
69800;DHT22;67217;51.008;4.644;2023-02-28T11:23:21;13.60;25.90
69800;DHT22;67217;51.008;4.644;2023-02-28T11:25:52;13.80;24.60
69800;DHT22;67217;51.008;4.644;2023-02-28T11:28:31;13.90;24.50
69800;DHT22;67217;51.008;4.644;2023-02-28T11:33:50;14.30;23.70
69800;DHT22;67217;51.008;4.644;2023-02-28T11:36:29;15.10;22.80
69800;DHT22;67217;51.008;4.644;2023-02-28T11:39:04;15.70;21.60
69800;DHT22;67217;51.008;4.644;2023-02-28T11:41:42;16.40;21.20
69800;DHT22;67217;51.008;4.644;2023-02-28T11:46:54;16.30;21.40
69800;DHT22;67217;51.008;4.644;2023-02-28T11:49:28;16.20;21.40
69800;DHT22;67217;51.008;4.644;2023-02-28T11:52:00;17.00;21.00
69800;DHT22;67217;51.008;4.644;2023-02-28T12:00:31;17.00;19.60
69800;DHT22;67217;51.008;4.644;2023-02-28T12:05:49;16.60;20.10
69800;DHT22;67217;51.008;4.644;2023-02-28T12:22:52;16.30;20.20
69800;DHT22;67217;51.008;4.644;2023-02-28T12:25:21;17.50;19.00
69800;DHT22;67217;51.008;4.644;2023-02-28T12:27:51;17.40;18.60
69800;DHT22;67217;51.008;4.644;2023-02-28T12:30:25;17.60;18.20
69800;DHT22;67217;51.008;4.644;2023-02-28T12:32:56;18.20;18.00
69800;DHT22;67217;51.008;4.644;2023-02-28T12:35:37;17.20;18.90
69800;DHT22;67217;51.008;4.644;2023-02-28T12:38:28;16.40;19.50
69800;DHT22;67217;51.008;4.644;2023-02-28T12:41:00;16.50;19.90
69800;DHT22;67217;51.008;4.644;2023-02-28T12:43:33;16.00;20.50
69800;DHT22;67217;51.008;4.644;2023-02-28T12:46:07;16.50;20.70
69800;DHT22;67217;51.008;4.644;2023-02-28T12:48:43;16.40;20.00
69800;DHT22;67217;51.008;4.644;2023-02-28T12:51:13;16.30;20.30
69800;DHT22;67217;51.008;4.644;2023-02-28T12:53:50;16.70;19.20
69800;DHT22;67217;51.008;4.644;2023-02-28T13:01:56;16.90;20.10
69800;DHT22;67217;51.008;4.644;2023-02-28T13:07:26;15.80;20.60
69800;DHT22;67217;51.008;4.644;2023-02-28T13:09:57;16.00;21.10
69800;DHT22;67217;51.008;4.644;2023-02-28T13:14:50;15.50;20.90
69800;DHT22;67217;51.008;4.644;2023-02-28T13:17:21;14.50;22.40
69800;DHT22;67217;51.008;4.644;2023-02-28T13:24:56;16.40;20.20
69800;DHT22;67217;51.008;4.644;2023-02-28T13:27:40;15.80;21.50
69800;DHT22;67217;51.008;4.644;2023-02-28T13:38:34;15.80;21.50
69800;DHT22;67217;51.008;4.644;2023-02-28T13:44:14;16.10;21.00
69800;DHT22;67217;51.008;4.644;2023-02-28T13:49:26;16.90;20.20
69800;DHT22;67217;51.008;4.644;2023-02-28T14:00:35;16.10;21.00
69800;DHT22;67217;51.008;4.644;2023-02-28T14:03:19;15.70;22.00
69800;DHT22;67217;51.008;4.644;2023-02-28T14:05:45;15.60;21.90
69800;DHT22;67217;51.008;4.644;2023-02-28T14:08:18;15.90;21.20
69800;DHT22;67217;51.008;4.644;2023-02-28T14:11:02;15.30;21.50
69800;DHT22;67217;51.008;4.644;2023-02-28T14:13:39;14.70;22.50
69800;DHT22;67217;51.008;4.644;2023-02-28T14:16:09;14.30;22.60
69800;DHT22;67217;51.008;4.644;2023-02-28T14:18:51;14.00;23.70
69800;DHT22;67217;51.008;4.644;2023-02-28T14:21:31;14.50;23.30
69800;DHT22;67217;51.008;4.644;2023-02-28T14:34:52;15.20;23.50
69800;DHT22;67217;51.008;4.644;2023-02-28T14:37:28;14.80;23.70
69800;DHT22;67217;51.008;4.644;2023-02-28T14:39:58;14.90;23.30
69800;DHT22;67217;51.008;4.644;2023-02-28T14:42:32;15.20;23.70
69800;DHT22;67217;51.008;4.644;2023-02-28T14:45:01;15.20;23.10
69800;DHT22;67217;51.008;4.644;2023-02-28T14:47:31;14.10;24.40
69800;DHT22;67217;51.008;4.644;2023-02-28T14:50:01;13.40;25.70
69800;DHT22;67217;51.008;4.644;2023-02-28T14:52:32;13.50;25.40
69800;DHT22;67217;51.008;4.644;2023-02-28T14:55:05;14.00;25.30
69800;DHT22;67217;51.008;4.644;2023-02-28T14:57:33;13.40;25.70
69800;DHT22;67217;51.008;4.644;2023-02-28T15:02:44;13.10;25.70
69800;DHT22;67217;51.008;4.644;2023-02-28T15:08:00;11.70;27.50
69800;DHT22;67217;51.008;4.644;2023-02-28T15:10:26;11.40;27.60
69800;DHT22;67217;51.008;4.644;2023-02-28T15:12:59;11.00;28.30
69800;DHT22;67217;51.008;4.644;2023-02-28T15:18:29;10.30;30.30
69800;DHT22;67217;51.008;4.644;2023-02-28T15:20:57;10.40;29.70
69800;DHT22;67217;51.008;4.644;2023-02-28T15:23:25;10.30;30.20
69800;DHT22;67217;51.008;4.644;2023-02-28T15:25:53;10.20;30.80
69800;DHT22;67217;51.008;4.644;2023-02-28T15:28:23;10.20;30.00
69800;DHT22;67217;51.008;4.644;2023-02-28T15:31:00;10.20;30.30
69800;DHT22;67217;51.008;4.644;2023-02-28T15:33:30;9.70;31.00
69800;DHT22;67217;51.008;4.644;2023-02-28T15:36:13;9.40;32.40
69800;DHT22;67217;51.008;4.644;2023-02-28T15:38:43;9.40;32.10
69800;DHT22;67217;51.008;4.644;2023-02-28T15:41:25;9.50;31.80
69800;DHT22;67217;51.008;4.644;2023-02-28T15:44:16;9.70;32.10
69800;DHT22;67217;51.008;4.644;2023-02-28T15:46:44;9.70;31.40
69800;DHT22;67217;51.008;4.644;2023-02-28T15:49:20;9.50;31.20
69800;DHT22;67217;51.008;4.644;2023-02-28T15:51:50;9.80;31.30
69800;DHT22;67217;51.008;4.644;2023-02-28T15:54:38;10.00;30.40
69800;DHT22;67217;51.008;4.644;2023-02-28T15:56:55;9.80;31.30
69800;DHT22;67217;51.008;4.644;2023-02-28T15:59:24;9.60;32.20
69800;DHT22;67217;51.008;4.644;2023-02-28T16:02:16;9.40;32.60
69800;DHT22;67217;51.008;4.644;2023-02-28T16:07:40;9.20;33.10
69800;DHT22;67217;51.008;4.644;2023-02-28T16:10:11;8.80;33.30
69800;DHT22;67217;51.008;4.644;2023-02-28T16:12:41;8.40;34.00
69800;DHT22;67217;51.008;4.644;2023-02-28T16:15:23;8.40;35.20
69800;DHT22;67217;51.008;4.644;2023-02-28T16:17:53;8.10;36.30
69800;DHT22;67217;51.008;4.644;2023-02-28T16:20:27;7.90;36.90
69800;DHT22;67217;51.008;4.644;2023-02-28T16:22:55;7.70;36.90
69800;DHT22;67217;51.008;4.644;2023-02-28T16:25:26;7.60;36.20
69800;DHT22;67217;51.008;4.644;2023-02-28T16:27:54;7.50;36.80
69800;DHT22;67217;51.008;4.644;2023-02-28T16:30:26;7.10;37.90
69800;DHT22;67217;51.008;4.644;2023-02-28T16:32:56;7.00;37.80
69800;DHT22;67217;51.008;4.644;2023-02-28T16:35:23;7.00;38.10
69800;DHT22;67217;51.008;4.644;2023-02-28T16:37:52;7.00;38.10
69800;DHT22;67217;51.008;4.644;2023-02-28T16:40:23;7.00;38.60
69800;DHT22;67217;51.008;4.644;2023-02-28T16:42:53;7.00;38.90
69800;DHT22;67217;51.008;4.644;2023-02-28T16:45:24;6.90;38.60
69800;DHT22;67217;51.008;4.644;2023-02-28T16:47:53;7.10;38.60
69800;DHT22;67217;51.008;4.644;2023-02-28T16:50:26;7.00;38.50
69800;DHT22;67217;51.008;4.644;2023-02-28T16:52:52;6.90;38.70
69800;DHT22;67217;51.008;4.644;2023-02-28T16:55:25;6.90;38.90
69800;DHT22;67217;51.008;4.644;2023-02-28T16:57:56;6.70;39.10
69800;DHT22;67217;51.008;4.644;2023-02-28T17:00:24;6.80;39.20
69800;DHT22;67217;51.008;4.644;2023-02-28T17:02:53;6.60;39.10
69800;DHT22;67217;51.008;4.644;2023-02-28T17:05:21;6.50;40.00
69800;DHT22;67217;51.008;4.644;2023-02-28T17:07:50;6.50;39.90
69800;DHT22;67217;51.008;4.644;2023-02-28T17:10:20;6.60;39.80
69800;DHT22;67217;51.008;4.644;2023-02-28T17:12:48;6.60;40.00
69800;DHT22;67217;51.008;4.644;2023-02-28T17:15:17;6.60;40.50
69800;DHT22;67217;51.008;4.644;2023-02-28T17:17:47;6.50;40.40
69800;DHT22;67217;51.008;4.644;2023-02-28T17:20:20;6.40;40.80
69800;DHT22;67217;51.008;4.644;2023-02-28T17:22:50;6.40;40.80
69800;DHT22;67217;51.008;4.644;2023-02-28T17:25:19;6.50;41.00
69800;DHT22;67217;51.008;4.644;2023-02-28T17:27:47;6.40;40.80
69800;DHT22;67217;51.008;4.644;2023-02-28T17:30:25;6.30;41.40
69800;DHT22;67217;51.008;4.644;2023-02-28T17:32:49;6.20;41.40
69800;DHT22;67217;51.008;4.644;2023-02-28T17:35:17;6.10;42.30
69800;DHT22;67217;51.008;4.644;2023-02-28T17:37:45;6.00;42.60
69800;DHT22;67217;51.008;4.644;2023-02-28T17:40:14;5.90;43.10
69800;DHT22;67217;51.008;4.644;2023-02-28T17:42:43;6.00;42.70
69800;DHT22;67217;51.008;4.644;2023-02-28T17:45:13;5.90;42.70
69800;DHT22;67217;51.008;4.644;2023-02-28T17:47:43;6.00;43.30
69800;DHT22;67217;51.008;4.644;2023-02-28T17:50:15;6.00;42.90
69800;DHT22;67217;51.008;4.644;2023-02-28T17:52:43;5.90;44.60
69800;DHT22;67217;51.008;4.644;2023-02-28T17:55:11;5.80;45.60
69800;DHT22;67217;51.008;4.644;2023-02-28T17:57:39;5.60;46.00
69800;DHT22;67217;51.008;4.644;2023-02-28T18:00:11;5.50;46.20
69800;DHT22;67217;51.008;4.644;2023-02-28T18:02:40;5.40;47.60
69800;DHT22;67217;51.008;4.644;2023-02-28T18:05:08;5.30;47.90
69800;DHT22;67217;51.008;4.644;2023-02-28T18:07:39;5.20;48.20
69800;DHT22;67217;51.008;4.644;2023-02-28T18:10:17;5.10;48.40
69800;DHT22;67217;51.008;4.644;2023-02-28T18:12:46;4.90;50.80
69800;DHT22;67217;51.008;4.644;2023-02-28T18:15:15;4.70;51.20
69800;DHT22;67217;51.008;4.644;2023-02-28T18:17:47;4.80;51.30
69800;DHT22;67217;51.008;4.644;2023-02-28T18:20:15;4.80;51.50
69800;DHT22;67217;51.008;4.644;2023-02-28T18:22:43;4.70;52.10
69800;DHT22;67217;51.008;4.644;2023-02-28T18:25:11;4.60;52.00
69800;DHT22;67217;51.008;4.644;2023-02-28T18:27:44;4.50;52.80
69800;DHT22;67217;51.008;4.644;2023-02-28T18:30:23;4.40;52.50
69800;DHT22;67217;51.008;4.644;2023-02-28T18:32:51;4.40;53.60